sensor_id;sensor_type;location;lat;lon;timestamp;temperature;humidity
21493;DHT22;10908;50.690;4.400;2024-03-07T00:00:07;5.50;81.70
21493;DHT22;10908;50.690;4.400;2024-03-07T00:02:44;5.50;81.80
21493;DHT22;10908;50.690;4.400;2024-03-07T00:05:13;5.50;81.70
21493;DHT22;10908;50.690;4.400;2024-03-07T00:07:39;5.50;81.70
21493;DHT22;10908;50.690;4.400;2024-03-07T00:10:06;5.40;81.30
21493;DHT22;10908;50.690;4.400;2024-03-07T00:12:39;5.20;81.50
21493;DHT22;10908;50.690;4.400;2024-03-07T00:15:09;5.30;81.80
21493;DHT22;10908;50.690;4.400;2024-03-07T00:17:36;5.30;82.00
21493;DHT22;10908;50.690;4.400;2024-03-07T00:20:03;5.20;81.90
21493;DHT22;10908;50.690;4.400;2024-03-07T00:22:38;5.20;82.30
21493;DHT22;10908;50.690;4.400;2024-03-07T00:25:04;5.20;82.30
21493;DHT22;10908;50.690;4.400;2024-03-07T00:27:35;5.20;82.10
21493;DHT22;10908;50.690;4.400;2024-03-07T00:30:05;5.00;81.90
21493;DHT22;10908;50.690;4.400;2024-03-07T00:32:31;5.00;82.20
21493;DHT22;10908;50.690;4.400;2024-03-07T00:35:01;5.00;82.60
21493;DHT22;10908;50.690;4.400;2024-03-07T00:37:28;5.00;82.90
21493;DHT22;10908;50.690;4.400;2024-03-07T00:39:54;5.00;82.40
21493;DHT22;10908;50.690;4.400;2024-03-07T00:42:20;5.00;82.70
21493;DHT22;10908;50.690;4.400;2024-03-07T00:44:47;5.00;82.70
21493;DHT22;10908;50.690;4.400;2024-03-07T00:47:15;5.00;82.80
21493;DHT22;10908;50.690;4.400;2024-03-07T00:49:43;5.00;82.80
21493;DHT22;10908;50.690;4.400;2024-03-07T00:52:09;5.00;82.90
21493;DHT22;10908;50.690;4.400;2024-03-07T00:54:35;4.90;82.90
21493;DHT22;10908;50.690;4.400;2024-03-07T00:57:01;4.90;82.70
21493;DHT22;10908;50.690;4.400;2024-03-07T00:59:27;4.80;82.60
21493;DHT22;10908;50.690;4.400;2024-03-07T01:01:53;4.90;82.70
21493;DHT22;10908;50.690;4.400;2024-03-07T01:04:19;4.90;82.50
21493;DHT22;10908;50.690;4.400;2024-03-07T01:06:44;4.90;82.50
21493;DHT22;10908;50.690;4.400;2024-03-07T01:09:10;4.90;82.90
21493;DHT22;10908;50.690;4.400;2024-03-07T01:11:42;4.90;83.10
21493;DHT22;10908;50.690;4.400;2024-03-07T01:14:07;5.10;83.20
21493;DHT22;10908;50.690;4.400;2024-03-07T01:16:33;5.20;83.00
21493;DHT22;10908;50.690;4.400;2024-03-07T01:19:00;5.10;83.20
21493;DHT22;10908;50.690;4.400;2024-03-07T01:21:25;5.20;83.80
21493;DHT22;10908;50.690;4.400;2024-03-07T01:23:51;5.30;83.70
21493;DHT22;10908;50.690;4.400;2024-03-07T01:26:17;5.30;83.70
21493;DHT22;10908;50.690;4.400;2024-03-07T01:28:42;5.50;83.50
21493;DHT22;10908;50.690;4.400;2024-03-07T01:31:08;5.50;83.10
21493;DHT22;10908;50.690;4.400;2024-03-07T01:33:35;5.40;83.30
21493;DHT22;10908;50.690;4.400;2024-03-07T01:36:01;5.40;83.70
21493;DHT22;10908;50.690;4.400;2024-03-07T01:38:27;5.60;83.60
21493;DHT22;10908;50.690;4.400;2024-03-07T01:40:52;5.40;83.70
21493;DHT22;10908;50.690;4.400;2024-03-07T01:43:18;5.50;83.70
21493;DHT22;10908;50.690;4.400;2024-03-07T01:45:44;5.40;83.50
21493;DHT22;10908;50.690;4.400;2024-03-07T01:48:11;5.50;83.50
21493;DHT22;10908;50.690;4.400;2024-03-07T01:50:39;5.60;83.30
21493;DHT22;10908;50.690;4.400;2024-03-07T01:53:06;5.50;83.20
21493;DHT22;10908;50.690;4.400;2024-03-07T01:55:34;5.60;83.10
21493;DHT22;10908;50.690;4.400;2024-03-07T01:58:02;5.50;83.00
21493;DHT22;10908;50.690;4.400;2024-03-07T02:00:28;5.60;82.90
21493;DHT22;10908;50.690;4.400;2024-03-07T02:02:53;5.60;82.90
21493;DHT22;10908;50.690;4.400;2024-03-07T02:05:21;5.50;83.40
21493;DHT22;10908;50.690;4.400;2024-03-07T02:07:47;5.50;83.70
21493;DHT22;10908;50.690;4.400;2024-03-07T02:10:13;5.30;84.20
21493;DHT22;10908;50.690;4.400;2024-03-07T02:12:39;5.30;84.50
21493;DHT22;10908;50.690;4.400;2024-03-07T02:15:05;5.30;85.00
21493;DHT22;10908;50.690;4.400;2024-03-07T02:17:31;5.30;85.20
21493;DHT22;10908;50.690;4.400;2024-03-07T02:19:57;5.20;85.40
21493;DHT22;10908;50.690;4.400;2024-03-07T02:22:24;5.30;85.60
21493;DHT22;10908;50.690;4.400;2024-03-07T02:24:51;5.40;85.60
21493;DHT22;10908;50.690;4.400;2024-03-07T02:27:18;5.20;85.70
21493;DHT22;10908;50.690;4.400;2024-03-07T02:29:44;5.20;86.00
21493;DHT22;10908;50.690;4.400;2024-03-07T02:32:09;5.20;86.10
21493;DHT22;10908;50.690;4.400;2024-03-07T02:34:35;5.30;86.10
21493;DHT22;10908;50.690;4.400;2024-03-07T02:37:01;5.30;86.10
21493;DHT22;10908;50.690;4.400;2024-03-07T02:39:28;5.10;86.10
21493;DHT22;10908;50.690;4.400;2024-03-07T02:41:53;5.10;86.30
21493;DHT22;10908;50.690;4.400;2024-03-07T02:44:19;5.20;86.60
21493;DHT22;10908;50.690;4.400;2024-03-07T02:46:45;5.20;86.70
21493;DHT22;10908;50.690;4.400;2024-03-07T02:49:12;5.40;86.60
21493;DHT22;10908;50.690;4.400;2024-03-07T02:51:38;5.20;86.50
21493;DHT22;10908;50.690;4.400;2024-03-07T02:54:04;5.00;86.80
21493;DHT22;10908;50.690;4.400;2024-03-07T02:56:31;4.90;87.40
21493;DHT22;10908;50.690;4.400;2024-03-07T02:58:57;5.00;87.80
21493;DHT22;10908;50.690;4.400;2024-03-07T03:01:22;5.10;87.90
21493;DHT22;10908;50.690;4.400;2024-03-07T03:03:48;5.20;87.60
21493;DHT22;10908;50.690;4.400;2024-03-07T03:06:13;5.10;87.50
21493;DHT22;10908;50.690;4.400;2024-03-07T03:08:39;5.10;87.70
21493;DHT22;10908;50.690;4.400;2024-03-07T03:11:05;5.10;87.50
21493;DHT22;10908;50.690;4.400;2024-03-07T03:13:30;5.00;87.60
21493;DHT22;10908;50.690;4.400;2024-03-07T03:15:57;4.90;88.00
21493;DHT22;10908;50.690;4.400;2024-03-07T03:18:23;4.90;88.30
21493;DHT22;10908;50.690;4.400;2024-03-07T03:20:49;4.80;88.70
21493;DHT22;10908;50.690;4.400;2024-03-07T03:23:15;4.80;89.00
21493;DHT22;10908;50.690;4.400;2024-03-07T03:25:42;4.90;88.90
21493;DHT22;10908;50.690;4.400;2024-03-07T03:28:08;5.10;88.80
21493;DHT22;10908;50.690;4.400;2024-03-07T03:30:38;5.10;88.50
21493;DHT22;10908;50.690;4.400;2024-03-07T03:33:05;5.10;88.20
21493;DHT22;10908;50.690;4.400;2024-03-07T03:35:32;5.30;88.10
21493;DHT22;10908;50.690;4.400;2024-03-07T03:37:58;5.20;87.50
21493;DHT22;10908;50.690;4.400;2024-03-07T03:40:24;5.10;87.50
21493;DHT22;10908;50.690;4.400;2024-03-07T03:42:50;5.00;87.30
21493;DHT22;10908;50.690;4.400;2024-03-07T03:45:15;5.00;87.60
21493;DHT22;10908;50.690;4.400;2024-03-07T03:47:42;4.90;87.80
21493;DHT22;10908;50.690;4.400;2024-03-07T03:50:10;4.80;88.40
21493;DHT22;10908;50.690;4.400;2024-03-07T03:52:36;4.70;88.80
21493;DHT22;10908;50.690;4.400;2024-03-07T03:55:05;4.70;89.10
21493;DHT22;10908;50.690;4.400;2024-03-07T03:57:32;4.70;89.40
21493;DHT22;10908;50.690;4.400;2024-03-07T04:00:02;4.80;89.50
21493;DHT22;10908;50.690;4.400;2024-03-07T04:02:41;4.80;89.30
21493;DHT22;10908;50.690;4.400;2024-03-07T04:05:07;4.60;89.20
21493;DHT22;10908;50.690;4.400;2024-03-07T04:07:34;4.60;89.70
21493;DHT22;10908;50.690;4.400;2024-03-07T04:10:00;4.50;90.00
21493;DHT22;10908;50.690;4.400;2024-03-07T04:12:28;4.40;90.20
21493;DHT22;10908;50.690;4.400;2024-03-07T04:14:54;4.40;90.70
21493;DHT22;10908;50.690;4.400;2024-03-07T04:17:21;4.40;90.70
21493;DHT22;10908;50.690;4.400;2024-03-07T04:19:47;4.40;90.90
21493;DHT22;10908;50.690;4.400;2024-03-07T04:22:12;4.40;91.10
21493;DHT22;10908;50.690;4.400;2024-03-07T04:24:38;4.70;91.20
21493;DHT22;10908;50.690;4.400;2024-03-07T04:27:06;4.60;90.90
21493;DHT22;10908;50.690;4.400;2024-03-07T04:29:32;4.50;90.50
21493;DHT22;10908;50.690;4.400;2024-03-07T04:32:02;4.50;90.80
21493;DHT22;10908;50.690;4.400;2024-03-07T04:34:29;4.50;90.50
21493;DHT22;10908;50.690;4.400;2024-03-07T04:36:57;4.50;90.60
21493;DHT22;10908;50.690;4.400;2024-03-07T04:39:24;4.50;90.50
21493;DHT22;10908;50.690;4.400;2024-03-07T04:42:02;4.40;90.40
21493;DHT22;10908;50.690;4.400;2024-03-07T04:44:29;4.30;90.50
21493;DHT22;10908;50.690;4.400;2024-03-07T04:46:55;4.30;90.90
21493;DHT22;10908;50.690;4.400;2024-03-07T04:49:29;4.30;91.20
21493;DHT22;10908;50.690;4.400;2024-03-07T04:51:57;4.40;91.30
21493;DHT22;10908;50.690;4.400;2024-03-07T04:54:26;4.40;91.00
21493;DHT22;10908;50.690;4.400;2024-03-07T04:56:53;4.40;91.00
21493;DHT22;10908;50.690;4.400;2024-03-07T04:59:19;4.40;90.90
21493;DHT22;10908;50.690;4.400;2024-03-07T05:01:46;4.50;90.80
21493;DHT22;10908;50.690;4.400;2024-03-07T05:04:13;4.40;90.60
21493;DHT22;10908;50.690;4.400;2024-03-07T05:06:39;4.50;90.80
21493;DHT22;10908;50.690;4.400;2024-03-07T05:09:09;4.50;90.40
21493;DHT22;10908;50.690;4.400;2024-03-07T05:11:36;4.40;90.50
21493;DHT22;10908;50.690;4.400;2024-03-07T05:25:19;4.20;90.50
21493;DHT22;10908;50.690;4.400;2024-03-07T05:27:47;3.90;92.00
21493;DHT22;10908;50.690;4.400;2024-03-07T05:30:16;3.90;92.20
21493;DHT22;10908;50.690;4.400;2024-03-07T05:32:42;3.90;92.40
21493;DHT22;10908;50.690;4.400;2024-03-07T05:35:08;4.00;92.70
21493;DHT22;10908;50.690;4.400;2024-03-07T05:37:34;4.00;92.50
21493;DHT22;10908;50.690;4.400;2024-03-07T05:40:00;3.90;92.60
21493;DHT22;10908;50.690;4.400;2024-03-07T05:42:28;4.00;92.90
21493;DHT22;10908;50.690;4.400;2024-03-07T05:44:55;4.10;93.00
21493;DHT22;10908;50.690;4.400;2024-03-07T05:47:20;4.10;93.20
21493;DHT22;10908;50.690;4.400;2024-03-07T05:49:47;4.10;93.40
21493;DHT22;10908;50.690;4.400;2024-03-07T05:52:12;4.00;93.60
21493;DHT22;10908;50.690;4.400;2024-03-07T05:54:38;3.90;93.70
21493;DHT22;10908;50.690;4.400;2024-03-07T05:57:04;4.00;93.90
21493;DHT22;10908;50.690;4.400;2024-03-07T05:59:32;4.00;94.00
21493;DHT22;10908;50.690;4.400;2024-03-07T06:01:58;3.90;94.20
21493;DHT22;10908;50.690;4.400;2024-03-07T06:04:23;3.90;94.40
21493;DHT22;10908;50.690;4.400;2024-03-07T06:06:49;3.90;94.40
21493;DHT22;10908;50.690;4.400;2024-03-07T06:09:15;3.90;94.50
21493;DHT22;10908;50.690;4.400;2024-03-07T06:11:47;3.90;94.50
21493;DHT22;10908;50.690;4.400;2024-03-07T06:14:13;4.00;94.60
21493;DHT22;10908;50.690;4.400;2024-03-07T06:16:39;3.90;94.70
21493;DHT22;10908;50.690;4.400;2024-03-07T06:19:07;3.90;94.80
21493;DHT22;10908;50.690;4.400;2024-03-07T06:21:34;3.90;94.80
21493;DHT22;10908;50.690;4.400;2024-03-07T06:24:00;3.90;94.80
21493;DHT22;10908;50.690;4.400;2024-03-07T06:26:28;3.80;94.90
21493;DHT22;10908;50.690;4.400;2024-03-07T06:29:07;3.90;95.00
21493;DHT22;10908;50.690;4.400;2024-03-07T06:31:33;3.80;95.10
21493;DHT22;10908;50.690;4.400;2024-03-07T06:34:00;3.80;95.10
21493;DHT22;10908;50.690;4.400;2024-03-07T06:36:25;3.80;95.10
21493;DHT22;10908;50.690;4.400;2024-03-07T06:38:51;4.00;95.30
21493;DHT22;10908;50.690;4.400;2024-03-07T06:41:17;4.10;95.40
21493;DHT22;10908;50.690;4.400;2024-03-07T06:43:46;3.90;95.10
21493;DHT22;10908;50.690;4.400;2024-03-07T06:46:12;4.00;95.20
21493;DHT22;10908;50.690;4.400;2024-03-07T06:48:42;3.80;95.00
21493;DHT22;10908;50.690;4.400;2024-03-07T06:51:08;3.90;95.20
21493;DHT22;10908;50.690;4.400;2024-03-07T06:53:33;4.00;95.30
21493;DHT22;10908;50.690;4.400;2024-03-07T06:56:00;3.90;95.20
21493;DHT22;10908;50.690;4.400;2024-03-07T06:58:26;4.00;95.30
21493;DHT22;10908;50.690;4.400;2024-03-07T07:00:52;4.10;95.30
21493;DHT22;10908;50.690;4.400;2024-03-07T07:03:23;3.90;95.10
21493;DHT22;10908;50.690;4.400;2024-03-07T07:05:50;3.90;95.20
21493;DHT22;10908;50.690;4.400;2024-03-07T07:08:16;4.00;95.20
21493;DHT22;10908;50.690;4.400;2024-03-07T07:10:42;4.00;95.30
21493;DHT22;10908;50.690;4.400;2024-03-07T07:13:08;3.90;95.00
21493;DHT22;10908;50.690;4.400;2024-03-07T07:15:34;3.90;95.00
21493;DHT22;10908;50.690;4.400;2024-03-07T07:18:02;3.80;95.10
21493;DHT22;10908;50.690;4.400;2024-03-07T07:20:28;3.80;95.10
21493;DHT22;10908;50.690;4.400;2024-03-07T07:22:54;3.90;95.20
21493;DHT22;10908;50.690;4.400;2024-03-07T07:25:20;4.00;95.30
21493;DHT22;10908;50.690;4.400;2024-03-07T07:27:50;3.90;95.30
21493;DHT22;10908;50.690;4.400;2024-03-07T07:30:18;3.80;95.30
21493;DHT22;10908;50.690;4.400;2024-03-07T07:32:44;4.00;95.40
21493;DHT22;10908;50.690;4.400;2024-03-07T07:35:11;4.10;95.30
21493;DHT22;10908;50.690;4.400;2024-03-07T07:37:44;3.90;95.10
21493;DHT22;10908;50.690;4.400;2024-03-07T07:40:11;4.00;95.40
21493;DHT22;10908;50.690;4.400;2024-03-07T07:42:43;3.80;95.10
21493;DHT22;10908;50.690;4.400;2024-03-07T07:45:09;3.80;95.40
21493;DHT22;10908;50.690;4.400;2024-03-07T07:47:43;3.90;95.40
21493;DHT22;10908;50.690;4.400;2024-03-07T07:50:14;3.80;95.30
21493;DHT22;10908;50.690;4.400;2024-03-07T07:52:47;4.00;95.50
21493;DHT22;10908;50.690;4.400;2024-03-07T07:55:25;4.00;95.50
21493;DHT22;10908;50.690;4.400;2024-03-07T08:00:23;4.10;95.60
21493;DHT22;10908;50.690;4.400;2024-03-07T08:05:19;3.90;95.50
21493;DHT22;10908;50.690;4.400;2024-03-07T08:07:46;4.10;95.70
21493;DHT22;10908;50.690;4.400;2024-03-07T08:10:13;4.40;95.80
21493;DHT22;10908;50.690;4.400;2024-03-07T08:12:40;4.30;95.60
21493;DHT22;10908;50.690;4.400;2024-03-07T08:15:09;4.40;95.70
21493;DHT22;10908;50.690;4.400;2024-03-07T08:17:42;4.40;95.60
21493;DHT22;10908;50.690;4.400;2024-03-07T08:20:13;4.40;95.50
21493;DHT22;10908;50.690;4.400;2024-03-07T08:22:39;4.30;95.50
21493;DHT22;10908;50.690;4.400;2024-03-07T08:25:09;4.40;95.50
21493;DHT22;10908;50.690;4.400;2024-03-07T08:27:39;4.40;95.30
21493;DHT22;10908;50.690;4.400;2024-03-07T08:30:07;4.40;95.40
21493;DHT22;10908;50.690;4.400;2024-03-07T08:32:34;4.60;95.40
21493;DHT22;10908;50.690;4.400;2024-03-07T08:35:05;4.60;95.20
21493;DHT22;10908;50.690;4.400;2024-03-07T08:37:41;4.60;95.20
21493;DHT22;10908;50.690;4.400;2024-03-07T08:40:08;4.40;94.90
21493;DHT22;10908;50.690;4.400;2024-03-07T08:42:48;4.60;95.00
21493;DHT22;10908;50.690;4.400;2024-03-07T08:45:15;4.50;94.80
21493;DHT22;10908;50.690;4.400;2024-03-07T08:47:45;4.60;94.80
21493;DHT22;10908;50.690;4.400;2024-03-07T08:50:12;4.40;94.60
21493;DHT22;10908;50.690;4.400;2024-03-07T08:52:39;4.60;94.80
21493;DHT22;10908;50.690;4.400;2024-03-07T08:55:06;4.80;94.80
21493;DHT22;10908;50.690;4.400;2024-03-07T08:57:35;4.80;94.50
21493;DHT22;10908;50.690;4.400;2024-03-07T09:00:02;4.80;94.40
21493;DHT22;10908;50.690;4.400;2024-03-07T09:02:34;4.90;94.40
21493;DHT22;10908;50.690;4.400;2024-03-07T09:05:00;4.80;94.00
21493;DHT22;10908;50.690;4.400;2024-03-07T09:07:26;4.80;94.00
21493;DHT22;10908;50.690;4.400;2024-03-07T09:09:51;4.90;94.00
21493;DHT22;10908;50.690;4.400;2024-03-07T09:12:17;4.80;93.80
21493;DHT22;10908;50.690;4.400;2024-03-07T09:14:45;5.00;94.00
21493;DHT22;10908;50.690;4.400;2024-03-07T09:17:11;5.20;93.70
21493;DHT22;10908;50.690;4.400;2024-03-07T09:19:37;5.00;93.40
21493;DHT22;10908;50.690;4.400;2024-03-07T09:22:03;5.10;93.40
21493;DHT22;10908;50.690;4.400;2024-03-07T09:24:30;5.40;93.30
21493;DHT22;10908;50.690;4.400;2024-03-07T09:26:56;5.30;92.90
21493;DHT22;10908;50.690;4.400;2024-03-07T09:29:23;5.20;92.50
21493;DHT22;10908;50.690;4.400;2024-03-07T09:31:52;5.20;92.50
21493;DHT22;10908;50.690;4.400;2024-03-07T09:34:19;5.10;92.20
21493;DHT22;10908;50.690;4.400;2024-03-07T09:36:47;5.40;92.40
21493;DHT22;10908;50.690;4.400;2024-03-07T09:39:14;5.70;92.10
21493;DHT22;10908;50.690;4.400;2024-03-07T09:41:40;5.40;91.60
21493;DHT22;10908;50.690;4.400;2024-03-07T09:44:09;5.20;91.70
21493;DHT22;10908;50.690;4.400;2024-03-07T09:46:38;5.10;92.00
21493;DHT22;10908;50.690;4.400;2024-03-07T09:49:04;5.20;92.30
21493;DHT22;10908;50.690;4.400;2024-03-07T09:51:31;5.20;92.30
21493;DHT22;10908;50.690;4.400;2024-03-07T09:53:58;5.20;92.20
21493;DHT22;10908;50.690;4.400;2024-03-07T09:56:25;5.30;92.40
21493;DHT22;10908;50.690;4.400;2024-03-07T09:58:56;5.30;92.30
21493;DHT22;10908;50.690;4.400;2024-03-07T10:01:25;5.50;92.30
21493;DHT22;10908;50.690;4.400;2024-03-07T10:03:58;5.60;92.00
21493;DHT22;10908;50.690;4.400;2024-03-07T10:06:24;5.70;91.90
21493;DHT22;10908;50.690;4.400;2024-03-07T10:08:52;5.80;91.40
21493;DHT22;10908;50.690;4.400;2024-03-07T10:11:18;5.70;91.30
21493;DHT22;10908;50.690;4.400;2024-03-07T10:13:46;5.80;91.10
21493;DHT22;10908;50.690;4.400;2024-03-07T10:16:16;6.00;91.00
21493;DHT22;10908;50.690;4.400;2024-03-07T10:18:43;5.90;90.20
21493;DHT22;10908;50.690;4.400;2024-03-07T10:21:10;6.00;90.40
21493;DHT22;10908;50.690;4.400;2024-03-07T10:23:38;6.10;90.50
21493;DHT22;10908;50.690;4.400;2024-03-07T10:26:04;6.30;90.30
21493;DHT22;10908;50.690;4.400;2024-03-07T10:28:30;6.70;90.10
21493;DHT22;10908;50.690;4.400;2024-03-07T10:30:56;7.20;89.50
21493;DHT22;10908;50.690;4.400;2024-03-07T10:33:26;7.10;87.30
21493;DHT22;10908;50.690;4.400;2024-03-07T10:35:52;7.00;86.90
21493;DHT22;10908;50.690;4.400;2024-03-07T10:38:18;7.00;86.80
21493;DHT22;10908;50.690;4.400;2024-03-07T10:40:47;6.70;87.00
21493;DHT22;10908;50.690;4.400;2024-03-07T10:43:13;6.40;87.50
21493;DHT22;10908;50.690;4.400;2024-03-07T10:48:11;6.80;88.00
21493;DHT22;10908;50.690;4.400;2024-03-07T10:53:39;7.20;87.20
21493;DHT22;10908;50.690;4.400;2024-03-07T10:56:41;7.40;86.40
21493;DHT22;10908;50.690;4.400;2024-03-07T10:59:20;7.60;85.90
21493;DHT22;10908;50.690;4.400;2024-03-07T11:04:38;7.50;83.50
21493;DHT22;10908;50.690;4.400;2024-03-07T11:07:04;7.40;83.70
21493;DHT22;10908;50.690;4.400;2024-03-07T11:09:31;7.60;83.50
21493;DHT22;10908;50.690;4.400;2024-03-07T11:12:00;7.60;83.50
21493;DHT22;10908;50.690;4.400;2024-03-07T11:14:29;7.60;83.20
21493;DHT22;10908;50.690;4.400;2024-03-07T11:16:57;7.90;83.30
21493;DHT22;10908;50.690;4.400;2024-03-07T11:19:28;8.10;83.00
21493;DHT22;10908;50.690;4.400;2024-03-07T11:21:56;8.10;81.50
21493;DHT22;10908;50.690;4.400;2024-03-07T11:24:26;8.20;81.10
21493;DHT22;10908;50.690;4.400;2024-03-07T11:26:54;8.40;81.50
21493;DHT22;10908;50.690;4.400;2024-03-07T11:32:12;8.60;80.60
21493;DHT22;10908;50.690;4.400;2024-03-07T11:34:42;8.70;80.10
21493;DHT22;10908;50.690;4.400;2024-03-07T11:37:19;8.90;78.70
21493;DHT22;10908;50.690;4.400;2024-03-07T11:39:49;8.90;77.60
21493;DHT22;10908;50.690;4.400;2024-03-07T11:42:25;9.00;78.50
21493;DHT22;10908;50.690;4.400;2024-03-07T11:44:56;9.10;76.10
21493;DHT22;10908;50.690;4.400;2024-03-07T11:47:22;9.30;75.90
21493;DHT22;10908;50.690;4.400;2024-03-07T11:49:50;9.30;73.30
21493;DHT22;10908;50.690;4.400;2024-03-07T11:52:20;9.20;74.60
21493;DHT22;10908;50.690;4.400;2024-03-07T11:54:46;9.30;73.30
21493;DHT22;10908;50.690;4.400;2024-03-07T11:57:18;9.20;72.50
21493;DHT22;10908;50.690;4.400;2024-03-07T11:59:58;9.40;72.40
21493;DHT22;10908;50.690;4.400;2024-03-07T12:02:27;9.30;73.20
21493;DHT22;10908;50.690;4.400;2024-03-07T12:04:54;9.40;73.40
21493;DHT22;10908;50.690;4.400;2024-03-07T12:07:20;9.40;73.30
21493;DHT22;10908;50.690;4.400;2024-03-07T12:09:49;9.40;72.70
21493;DHT22;10908;50.690;4.400;2024-03-07T12:12:20;9.10;73.20
21493;DHT22;10908;50.690;4.400;2024-03-07T12:14:55;9.20;73.50
21493;DHT22;10908;50.690;4.400;2024-03-07T12:17:22;9.10;72.60
21493;DHT22;10908;50.690;4.400;2024-03-07T12:19:48;9.20;73.00
21493;DHT22;10908;50.690;4.400;2024-03-07T12:22:19;9.10;71.90
21493;DHT22;10908;50.690;4.400;2024-03-07T12:24:59;9.10;72.60
21493;DHT22;10908;50.690;4.400;2024-03-07T12:27:27;9.10;73.20
21493;DHT22;10908;50.690;4.400;2024-03-07T12:29:53;9.10;73.50
21493;DHT22;10908;50.690;4.400;2024-03-07T12:32:19;9.30;71.60
21493;DHT22;10908;50.690;4.400;2024-03-07T12:34:46;9.10;71.30
21493;DHT22;10908;50.690;4.400;2024-03-07T12:37:13;9.40;72.00
21493;DHT22;10908;50.690;4.400;2024-03-07T12:39:45;9.40;71.40
21493;DHT22;10908;50.690;4.400;2024-03-07T12:42:18;9.50;71.20
21493;DHT22;10908;50.690;4.400;2024-03-07T12:44:45;9.60;71.00
21493;DHT22;10908;50.690;4.400;2024-03-07T12:47:17;9.60;69.80
21493;DHT22;10908;50.690;4.400;2024-03-07T12:49:46;9.70;70.70
21493;DHT22;10908;50.690;4.400;2024-03-07T12:52:12;9.60;70.80
21493;DHT22;10908;50.690;4.400;2024-03-07T12:54:41;9.40;71.70
21493;DHT22;10908;50.690;4.400;2024-03-07T12:57:10;9.20;71.20
21493;DHT22;10908;50.690;4.400;2024-03-07T12:59:38;9.00;71.90
21493;DHT22;10908;50.690;4.400;2024-03-07T13:02:12;9.00;71.60
21493;DHT22;10908;50.690;4.400;2024-03-07T13:04:38;8.90;71.50
21493;DHT22;10908;50.690;4.400;2024-03-07T13:07:05;8.90;70.70
21493;DHT22;10908;50.690;4.400;2024-03-07T13:09:34;9.00;71.20
21493;DHT22;10908;50.690;4.400;2024-03-07T13:12:00;9.10;71.20
21493;DHT22;10908;50.690;4.400;2024-03-07T13:14:31;9.00;71.00
21493;DHT22;10908;50.690;4.400;2024-03-07T13:17:01;8.90;71.50
21493;DHT22;10908;50.690;4.400;2024-03-07T13:19:28;8.80;71.60
21493;DHT22;10908;50.690;4.400;2024-03-07T13:21:54;8.80;72.30
21493;DHT22;10908;50.690;4.400;2024-03-07T13:24:21;8.90;72.10
21493;DHT22;10908;50.690;4.400;2024-03-07T13:26:47;8.90;71.60
21493;DHT22;10908;50.690;4.400;2024-03-07T13:29:14;8.90;70.60
21493;DHT22;10908;50.690;4.400;2024-03-07T13:31:40;9.10;70.30
21493;DHT22;10908;50.690;4.400;2024-03-07T13:34:11;9.20;70.20
21493;DHT22;10908;50.690;4.400;2024-03-07T13:36:40;9.20;70.10
21493;DHT22;10908;50.690;4.400;2024-03-07T13:39:07;9.20;69.60
21493;DHT22;10908;50.690;4.400;2024-03-07T13:41:37;9.10;69.60
21493;DHT22;10908;50.690;4.400;2024-03-07T13:44:04;9.00;70.90
21493;DHT22;10908;50.690;4.400;2024-03-07T13:46:29;8.90;70.50
21493;DHT22;10908;50.690;4.400;2024-03-07T13:48:56;8.90;70.60
21493;DHT22;10908;50.690;4.400;2024-03-07T13:51:33;8.90;70.30
21493;DHT22;10908;50.690;4.400;2024-03-07T13:54:01;8.90;70.20
21493;DHT22;10908;50.690;4.400;2024-03-07T13:56:52;8.90;70.00
21493;DHT22;10908;50.690;4.400;2024-03-07T13:59:44;9.10;69.50
21493;DHT22;10908;50.690;4.400;2024-03-07T14:05:46;9.10;67.40
21493;DHT22;10908;50.690;4.400;2024-03-07T14:25:00;9.30;64.60
21493;DHT22;10908;50.690;4.400;2024-03-07T14:27:34;9.30;65.20
21493;DHT22;10908;50.690;4.400;2024-03-07T14:32:53;9.50;66.20
21493;DHT22;10908;50.690;4.400;2024-03-07T14:35:39;9.60;64.20
21493;DHT22;10908;50.690;4.400;2024-03-07T14:38:40;9.50;64.00
21493;DHT22;10908;50.690;4.400;2024-03-07T14:41:10;9.40;63.90
21493;DHT22;10908;50.690;4.400;2024-03-07T14:43:38;9.30;64.50
21493;DHT22;10908;50.690;4.400;2024-03-07T14:46:04;9.20;64.60
21493;DHT22;10908;50.690;4.400;2024-03-07T14:48:30;9.30;64.60
21493;DHT22;10908;50.690;4.400;2024-03-07T14:50:58;9.30;64.80
21493;DHT22;10908;50.690;4.400;2024-03-07T14:53:24;9.40;64.80
21493;DHT22;10908;50.690;4.400;2024-03-07T14:55:50;9.30;63.80
21493;DHT22;10908;50.690;4.400;2024-03-07T14:58:16;9.30;63.00
21493;DHT22;10908;50.690;4.400;2024-03-07T15:00:42;9.30;63.90
21493;DHT22;10908;50.690;4.400;2024-03-07T15:03:15;9.40;63.50
21493;DHT22;10908;50.690;4.400;2024-03-07T15:05:43;9.40;62.80
21493;DHT22;10908;50.690;4.400;2024-03-07T15:08:13;9.30;63.40
21493;DHT22;10908;50.690;4.400;2024-03-07T15:10:43;9.30;62.30
21493;DHT22;10908;50.690;4.400;2024-03-07T15:13:12;9.20;62.60
21493;DHT22;10908;50.690;4.400;2024-03-07T15:15:38;9.20;62.50
21493;DHT22;10908;50.690;4.400;2024-03-07T15:18:05;9.30;62.30
21493;DHT22;10908;50.690;4.400;2024-03-07T15:20:31;9.30;61.70
21493;DHT22;10908;50.690;4.400;2024-03-07T15:23:01;9.30;61.80
21493;DHT22;10908;50.690;4.400;2024-03-07T15:25:29;9.30;62.10
21493;DHT22;10908;50.690;4.400;2024-03-07T15:27:56;9.20;62.80
21493;DHT22;10908;50.690;4.400;2024-03-07T15:30:23;9.30;62.30
21493;DHT22;10908;50.690;4.400;2024-03-07T15:32:50;9.30;62.90
21493;DHT22;10908;50.690;4.400;2024-03-07T15:35:16;9.30;63.50
21493;DHT22;10908;50.690;4.400;2024-03-07T15:37:46;9.40;63.00
21493;DHT22;10908;50.690;4.400;2024-03-07T15:40:17;9.30;63.60
21493;DHT22;10908;50.690;4.400;2024-03-07T15:42:47;9.30;63.50
21493;DHT22;10908;50.690;4.400;2024-03-07T15:45:18;9.30;62.90
21493;DHT22;10908;50.690;4.400;2024-03-07T15:47:50;9.30;62.80
21493;DHT22;10908;50.690;4.400;2024-03-07T15:50:17;9.30;63.50
21493;DHT22;10908;50.690;4.400;2024-03-07T15:52:47;9.30;64.10
21493;DHT22;10908;50.690;4.400;2024-03-07T15:55:13;9.20;63.60
21493;DHT22;10908;50.690;4.400;2024-03-07T15:57:44;9.10;63.90
21493;DHT22;10908;50.690;4.400;2024-03-07T16:00:13;9.20;64.60
21493;DHT22;10908;50.690;4.400;2024-03-07T16:05:26;9.20;64.30
21493;DHT22;10908;50.690;4.400;2024-03-07T16:07:54;9.20;65.60
21493;DHT22;10908;50.690;4.400;2024-03-07T16:10:25;9.10;64.40
21493;DHT22;10908;50.690;4.400;2024-03-07T16:12:52;9.10;64.30
21493;DHT22;10908;50.690;4.400;2024-03-07T16:15:19;9.10;64.90
21493;DHT22;10908;50.690;4.400;2024-03-07T16:17:49;9.10;63.90
21493;DHT22;10908;50.690;4.400;2024-03-07T16:20:14;9.10;64.80
21493;DHT22;10908;50.690;4.400;2024-03-07T16:22:45;9.10;64.70
21493;DHT22;10908;50.690;4.400;2024-03-07T16:25:12;9.10;64.60
21493;DHT22;10908;50.690;4.400;2024-03-07T16:27:42;9.10;64.80
21493;DHT22;10908;50.690;4.400;2024-03-07T16:30:13;9.10;64.10
21493;DHT22;10908;50.690;4.400;2024-03-07T16:32:40;9.00;64.70
21493;DHT22;10908;50.690;4.400;2024-03-07T16:35:07;9.00;64.60
21493;DHT22;10908;50.690;4.400;2024-03-07T16:37:41;9.10;65.40
21493;DHT22;10908;50.690;4.400;2024-03-07T16:40:09;9.00;64.90
21493;DHT22;10908;50.690;4.400;2024-03-07T16:42:36;9.00;65.00